Flight Track Log - Related Links

Times and Time Zones

All times are in EDT time to prevent confusion due to time zone crossing. See the JBU24 flight status page for this flight to view local times or setup timezone preferences in your user account.

Time Position Orientation Groundspeed Altitude Reporting Facility
EDT Latitude Longitude Course Direction KTS MPH feet Rate Location/Type
Mon 05:23:09 PM 40.6333 -73.7667 316° Northwest 160 184 1,000  Level New York TRACON
Mon 05:24:03 PM 40.6333 -73.7000 90° East 215 247 2,300 2,000 Climbing New York TRACON
Mon 05:25:03 PM 40.6833 -73.6500 37° Northeast 267 307 4,800 2,952 Climbing New York TRACON
Mon 05:26:00 PM 40.8695 -74.0958 311° West  Level FlightAware Approximate
Mon 05:26:09 PM 40.7500 -73.5667 43° Northeast 282 325 8,500  Level New York TRACON
Mon 05:27:00 PM 40.9274 -74.1805 316° Northwest  Level FlightAware Approximate
Mon 05:27:03 PM 40.8167 -73.5333 21° North 305 351 11,000  Level New York TRACON
Mon 05:28:00 PM 40.9894 -74.2601 316° Northwest  Level FlightAware Approximate
Mon 05:28:03 PM 40.8833 -73.6000 323° Northwest 332 382 12,700  Level New York TRACON
Mon 05:29:09 PM 40.9667 -73.7000 318° Northwest 346 398 15,400 2,150 Climbing New York TRACON
Mon 05:30:03 PM 41.0167 -73.8000 304° West 362 417 17,000 800 Climbing New York TRACON
Mon 05:31:09 PM 41.0500 -73.9333 288° West 358 412 17,000 -35 Level New York TRACON
Mon 05:32:53 PM 41.1092 -74.1472 290° West 372 428 16,900 -37 Descending New York Center
Mon 05:33:53 PM 41.1600 -74.2600 301° West 365 420 16,900  Level New York Center
Mon 05:34:51 PM 41.2133 -74.3592 306° West 360 414 16,900 966 Level New York Center
Mon 05:35:51 PM 41.2667 -74.4533 307° West 360 414 18,800 2,132 Climbing New York Center
Mon 05:36:52 PM 41.3414 -74.5900 306° West 373 429 21,200 1,587 Climbing New York Center
Mon 05:37:52 PM 41.4042 -74.7069 306° West 384 442 22,000 397 Climbing New York Center
Mon 05:38:53 PM 41.4669 -74.8242 306° West 389 448 22,000  Level New York Center
Mon 05:39:51 PM 41.5297 -74.9386 306° West 389 448 22,000  Level New York Center
Mon 05:40:52 PM 41.5900 -75.0561 304° West 389 448 22,000  Level New York Center
Mon 05:41:53 PM 41.6544 -75.1742 306° West 389 448 22,000  Level New York Center
Mon 05:42:53 PM 41.7164 -75.2922 305° West 389 448 22,000  Level New York Center
Mon 05:43:53 PM 41.7764 -75.4103 304° West 389 448 22,000  Level New York Center
Mon 05:44:52 PM 41.8386 -75.5231 307° West 389 448 22,000  Level New York Center
Mon 05:45:53 PM 41.9006 -75.6419 305° West 389 448 22,000  Level New York Center
Mon 05:46:51 PM 41.9619 -75.7633 304° West 389 448 22,000  Level New York Center
Mon 05:47:52 PM 42.0236 -75.8797 306° West 389 448 22,000 -843 Level New York Center
Mon 05:48:52 PM 42.0833 -75.9961 305° West 389 448 20,300 -1,686 Descending New York Center
Mon 05:49:53 PM 42.1408 -76.1069 305° West 383 441 18,600 -2,118 Descending New York Center
Mon 05:50:51 PM 42.2003 -76.2181 306° West 378 435 16,100 -2,420 Descending New York Center
Mon 05:51:52 PM 42.2967 -76.2458 348° North 338 389 13,800 -2,231 Descending New York Center
Mon 05:52:52 PM 42.3950 -76.2372 North 333 383 11,600 -2,182 Descending New York Center
Mon 05:53:09 PM 42.4222 -76.2403 355° North 340 391 11,000 -333 Descending Boston Center
Mon 05:54:40 PM 42.5642 -76.2319 North 332 382 11,000 -494 Level Boston Center
Mon 05:55:47 PM 42.6497 -76.2317 360° North 277 319 9,700 -1,672 Descending Boston Center
Mon 05:56:42 PM 42.7208 -76.2275 North 274 315 7,600 -2,281 Descending Boston Center
Mon 05:57:48 PM 42.8128 -76.2247 North 283 326 5,100 -1,701 Descending Boston Center
Mon 05:58:49 PM 42.8669 -76.1628 40° Northeast 267 307 4,000 -569 Descending Boston Center
Mon 05:59:44 PM 42.8961 -76.0964 59° Northeast 199 229 4,000 -50 Level Boston Center
Mon 06:00:50 PM 42.9089 -76.0178 77° East 190 219 3,900 -47 Descending Boston Center
Mon 06:01:51 PM 42.9339 -75.9542 62° Northeast 200 230 3,900 -148 Level Boston Center
Mon 06:02:52 PM 42.9897 -75.9714 347° North 200 230 3,600 -744 Descending Boston Center
Mon 06:03:52 PM 43.0386 -76.0028 335° Northwest 193 222 2,400 -1,200 Descending Boston Center

Login

Don't have an account? Register now (free) for customized features, flight alerts, and more!